Alledonia, Ohio
Current Conditions -  °F | °C
As of 11:53 PM on Sunday 21 Dec 2014 (Local Time) from KHLG Reporting Station
Clear Clear  
Wind Chill: -8°   Ceiling: Unl
Heat Index: -3°   Visibility: 8mi
Dew Point: -7°   Wind: 7mph
Humidity: 78%   Direction: 70°ENE
Pressure: 30.16"   Gusts: NA
Location:  39.9°N, 80.97°W
Report Text: KHLG 220453Z AUTO 07006KT 8SM CLR M03/M07 A3016 RMK AO2 SLP229 T10331067 400221033
Loading
Personal Weather Stations






























Interactive Weather Map New forecast layout! Learn more

10-Day Weather Forecast

Advertisements
Track Severe Weather on mobile